North, VA (23128)

3:58 AM EST on January 26, 2015 (GMT -0500)
KVANORTH4 | Change Station
CLOSE
Current Station
Personal Weather Station
Location: North, VA
Elevation: 20 ft
Nearby Weather Stations

Elev 20 ft 37.45 °N, 76.45 °W | Updated 8 minutes ago

Overcast
Overcast
38.4 °F
Feels Like 38 °F
N
0.0
Wind Variable Wind from SE
Gusts 0.0 mph

Today
High -- | Low -- °F
--% Chance of Precip.
Yesterday
High -- | Low -- °F
Precip. -- in
7:13 AM 5:22 PM
Waxing Crescent, 41% visible
Pressure 29.80 in
Visibility 10.0 miles
Clouds Mostly Cloudy 7500 ft
Mostly Cloudy 10000 ft
Overcast 12000 ft
Windchill 38 °F
Dew Point 36 °F
Humidity 91%
Rainfall 0.00 in
Snow Depth Not available.
UV 0 out of 12
Pollen 1.60 out of 12
Air Quality Not available.
Flu Activity Not available.
METAR KFYJ 260835Z AUTO 10003KT 10SM BKN075 BKN100 OVC120 05/02 A2980 RMK AO2 T00470015

More Conditions Fewer Conditions

Pressure 29.80 in
Visibility 10.0 miles
Clouds Mostly Cloudy 7500 ft
Mostly Cloudy 10000 ft
Overcast 12000 ft
Windchill 38 °F
Dew Point 36 °F
Humidity 91%
Rainfall 0.00 in
Snow Depth Not available.
UV 0 out of 12
Pollen 1.60 out of 12
Air Quality Not available.
Flu Activity Not available.
METAR KFYJ 260835Z AUTO 10003KT 10SM BKN075 BKN100 OVC120 05/02 A2980 RMK AO2 T00470015

More Conditions Fewer Conditions

10-Day Weather Forecast

Almanac

Astronomy

Jan. 26, 2015 Rise Set
Actual Time
Civil Twilight
Nautical Twilight
Astronomical Twilight
Moon
Length of Visible Light
Length of Day
Tomorrow will be .
, % of the Moon is Illuminated

Today's Extremes

State Highs State Lows

Community

WunderPhotos

Upload Photos

1,790,163 photos uploaded!

WunderBlogs® & News

Nearby

Air Quality

  Air Quality AQ Index Pollutant
Not available.

Snow Depth

Station Depth Elevation

Earthquake Activity

City Distance Mag. Time & Date
Minimum magnitude displayed is 2.5.

Coastal Water Temperatures

Place Temperature

Nearby Weather Stations